createdAt,value
2022-12-22T00:02:44.092Z,13.85
2022-12-22T00:05:34.218Z,14.35
2022-12-22T00:08:19.759Z,14.55
2022-12-22T00:11:07.244Z,14.52
2022-12-22T00:13:53.186Z,13.85
2022-12-22T00:16:38.898Z,13.77
2022-12-22T00:19:31.442Z,13.93
2022-12-22T00:22:19.622Z,14.93
2022-12-22T00:25:04.942Z,14.57
2022-12-22T00:27:51.950Z,14.18
2022-12-22T00:30:38.016Z,14.52
2022-12-22T00:33:24.174Z,14.07
2022-12-22T00:36:09.920Z,14.20
2022-12-22T00:38:55.525Z,14.32
2022-12-22T00:41:40.804Z,14.32
2022-12-22T00:44:27.831Z,16.40
2022-12-22T00:47:13.516Z,15.38
2022-12-22T00:50:02.860Z,15.50
2022-12-22T00:52:48.208Z,14.77
2022-12-22T00:55:35.329Z,14.90
2022-12-22T00:58:22.456Z,15.85
2022-12-22T01:01:09.247Z,15.13
2022-12-22T01:03:54.748Z,14.93
2022-12-22T01:06:40.174Z,16.00
2022-12-22T01:09:28.410Z,15.30
2022-12-22T01:12:13.915Z,15.88
2022-12-22T01:14:59.283Z,14.95
2022-12-22T01:17:45.940Z,16.67
2022-12-22T01:20:31.172Z,16.35
2022-12-22T01:23:16.470Z,18.13
2022-12-22T01:26:01.762Z,18.23
2022-12-22T01:28:47.046Z,17.67
2022-12-22T01:31:37.191Z,18.13
2022-12-22T01:34:23.905Z,17.30
2022-12-22T01:37:09.315Z,18.83
2022-12-22T01:39:54.686Z,18.80
2022-12-22T01:42:39.997Z,17.27
2022-12-22T01:45:39.529Z,18.42
2022-12-22T01:48:29.588Z,16.73
2022-12-22T01:51:18.274Z,17.23
2022-12-22T01:54:04.094Z,18.05
2022-12-22T01:56:50.691Z,17.27
2022-12-22T01:59:36.387Z,16.70
2022-12-22T02:02:24.924Z,16.10
2022-12-22T02:05:11.225Z,16.50
2022-12-22T02:08:14.755Z,16.50
2022-12-22T02:11:18.217Z,16.00
2022-12-22T02:14:13.565Z,17.10
2022-12-22T02:17:08.472Z,16.42
2022-12-22T02:20:09.397Z,17.02
2022-12-22T02:23:05.528Z,16.55
2022-12-22T02:25:58.630Z,16.65
2022-12-22T02:28:45.550Z,15.38
2022-12-22T02:31:31.772Z,14.75
2022-12-22T02:34:17.330Z,14.82
2022-12-22T02:37:12.746Z,14.57
2022-12-22T02:40:10.677Z,15.95
2022-12-22T02:43:05.555Z,16.25
2022-12-22T02:45:59.971Z,15.65
2022-12-22T02:48:51.334Z,15.35
2022-12-22T02:51:41.747Z,15.90
2022-12-22T02:54:28.107Z,16.25
2022-12-22T02:57:13.929Z,16.15
2022-12-22T02:59:59.189Z,15.18
2022-12-22T03:02:46.124Z,16.65
2022-12-22T03:05:31.807Z,15.68
2022-12-22T03:08:17.118Z,16.77
2022-12-22T03:11:02.315Z,16.45
2022-12-22T03:13:47.447Z,16.38
2022-12-22T03:16:33.151Z,15.10
2022-12-22T03:19:20.133Z,17.38
2022-12-22T03:22:05.424Z,15.20
2022-12-22T03:24:50.692Z,15.95
2022-12-22T03:27:18.607Z,15.68
2022-12-22T03:29:46.475Z,16.15
2022-12-22T03:32:14.398Z,16.38
2022-12-22T03:34:43.620Z,15.57
2022-12-22T03:37:11.504Z,15.55
2022-12-22T03:39:39.425Z,15.60
2022-12-22T03:42:25.042Z,15.50
2022-12-22T03:45:10.368Z,15.38
2022-12-22T03:47:38.251Z,15.35
2022-12-22T03:50:08.536Z,16.25
2022-12-22T03:52:36.384Z,15.60
2022-12-22T03:55:04.563Z,16.95
2022-12-22T03:57:32.411Z,16.33
2022-12-22T04:00:00.289Z,16.90
2022-12-22T04:02:28.285Z,15.27
2022-12-22T04:04:56.177Z,16.10
2022-12-22T04:07:25.381Z,16.75
2022-12-22T04:10:11.047Z,16.70
2022-12-22T04:12:56.903Z,16.45
2022-12-22T04:15:28.777Z,15.00
2022-12-22T04:17:57.535Z,16.33
2022-12-22T04:20:27.786Z,16.35
2022-12-22T04:22:57.868Z,16.23
2022-12-22T04:25:26.694Z,16.25
2022-12-22T04:27:54.589Z,16.25
2022-12-22T04:30:22.541Z,16.20
2022-12-22T04:32:50.383Z,14.73
2022-12-22T04:35:18.373Z,16.65
2022-12-22T04:37:46.318Z,16.55
2022-12-22T04:40:15.684Z,15.82
2022-12-22T04:42:43.624Z,16.30
2022-12-22T04:45:12.405Z,16.50
2022-12-22T04:47:40.355Z,16.02
2022-12-22T04:50:09.396Z,16.65
2022-12-22T04:52:37.243Z,16.42
2022-12-22T04:55:06.594Z,16.35
2022-12-22T04:57:40.452Z,15.48
2022-12-22T05:00:10.766Z,16.17
2022-12-22T05:02:38.763Z,16.98
2022-12-22T05:05:07.640Z,15.20
2022-12-22T05:07:35.640Z,16.17
2022-12-22T05:10:04.109Z,16.27
2022-12-22T05:12:49.690Z,16.92
2022-12-22T05:15:19.127Z,15.52
2022-12-22T05:17:47.027Z,16.10
2022-12-22T05:20:14.962Z,17.35
2022-12-22T05:22:42.858Z,16.20
2022-12-22T05:25:11.440Z,18.30
2022-12-22T05:27:39.737Z,16.25
2022-12-22T05:30:08.908Z,16.52
2022-12-22T05:32:38.175Z,16.55
2022-12-22T05:35:07.851Z,16.58
2022-12-22T05:37:36.326Z,17.65
2022-12-22T05:40:05.160Z,17.77
2022-12-22T05:42:39.547Z,17.27
2022-12-22T05:45:15.081Z,17.63
2022-12-22T05:47:44.858Z,17.58
2022-12-22T05:50:14.653Z,19.02
2022-12-22T05:52:42.772Z,18.42
2022-12-22T05:55:11.317Z,18.08
2022-12-22T05:57:39.418Z,17.60
2022-12-22T06:00:09.640Z,17.38
2022-12-22T06:02:37.601Z,18.10
2022-12-22T06:05:08.155Z,18.02
2022-12-22T06:07:36.081Z,17.38
2022-12-22T06:10:09.748Z,18.70
2022-12-22T06:12:40.578Z,16.33
2022-12-22T06:15:10.111Z,16.40
2022-12-22T06:17:43.952Z,17.98
2022-12-22T06:20:15.484Z,16.48
2022-12-22T06:22:43.888Z,16.13
2022-12-22T06:25:17.538Z,15.30
2022-12-22T06:27:46.601Z,16.42
2022-12-22T06:30:15.459Z,16.38
2022-12-22T06:32:43.740Z,14.57
2022-12-22T06:35:12.016Z,15.32
2022-12-22T06:37:41.406Z,15.32
2022-12-22T06:40:10.660Z,15.77
2022-12-22T06:42:58.523Z,14.85
2022-12-22T06:45:28.725Z,15.80
2022-12-22T06:47:56.689Z,16.20
2022-12-22T06:50:24.550Z,15.77
2022-12-22T06:52:54.348Z,14.93
2022-12-22T06:55:22.260Z,16.63
2022-12-22T06:57:50.219Z,15.80
2022-12-22T07:00:18.876Z,14.77
2022-12-22T07:02:46.981Z,14.98
2022-12-22T07:05:15.643Z,16.88
2022-12-22T07:07:43.898Z,14.75
2022-12-22T07:10:13.898Z,16.25
2022-12-22T07:12:42.091Z,16.90
2022-12-22T07:15:11.327Z,15.93
2022-12-22T07:17:41.575Z,16.23
2022-12-22T07:20:10.607Z,17.23
2022-12-22T07:22:38.468Z,18.70
2022-12-22T07:25:08.050Z,19.48
2022-12-22T07:27:37.281Z,20.23
2022-12-22T07:30:05.843Z,18.70
2022-12-22T07:32:33.747Z,19.58
2022-12-22T07:35:05.574Z,19.67
2022-12-22T07:37:33.965Z,21.40
2022-12-22T07:40:01.878Z,22.83
2022-12-22T07:42:46.722Z,22.63
2022-12-22T07:45:17.351Z,18.83
2022-12-22T07:47:45.853Z,21.65
2022-12-22T07:50:28.160Z,19.80
2022-12-22T07:52:57.212Z,20.20
2022-12-22T07:55:27.248Z,21.88
2022-12-22T07:57:56.027Z,19.38
2022-12-22T08:00:25.907Z,20.95
2022-12-22T08:02:55.407Z,19.95
2022-12-22T08:05:25.012Z,20.50
2022-12-22T08:07:53.761Z,19.80
2022-12-22T08:10:22.073Z,21.45
2022-12-22T08:12:49.963Z,19.13
2022-12-22T08:15:17.957Z,20.80
2022-12-22T08:17:47.170Z,19.83
2022-12-22T08:20:15.149Z,18.83
2022-12-22T08:22:43.098Z,19.60
2022-12-22T08:25:10.990Z,19.42
2022-12-22T08:27:44.799Z,19.88
2022-12-22T08:30:14.020Z,20.13
2022-12-22T08:32:42.888Z,20.80
2022-12-22T08:35:12.308Z,20.10
2022-12-22T08:37:44.775Z,18.60
2022-12-22T08:40:15.646Z,17.60
2022-12-22T08:42:43.727Z,17.63
2022-12-22T08:45:12.487Z,18.90
2022-12-22T08:47:40.360Z,19.65
2022-12-22T08:50:09.567Z,19.52
2022-12-22T08:52:38.764Z,19.55
2022-12-22T08:55:07.998Z,18.65
2022-12-22T08:57:36.155Z,19.20
2022-12-22T09:00:05.353Z,18.33
2022-12-22T09:02:33.402Z,19.20
2022-12-22T09:05:01.534Z,16.98
2022-12-22T09:07:29.950Z,16.23
2022-12-22T09:09:59.164Z,15.82
2022-12-22T09:12:27.094Z,15.10
2022-12-22T09:14:55.018Z,15.60
2022-12-22T09:17:23.376Z,16.33
2022-12-22T09:19:51.310Z,15.10
2022-12-22T09:22:25.102Z,15.00
2022-12-22T09:24:56.198Z,14.75
2022-12-22T09:27:25.476Z,16.10
2022-12-22T09:29:53.416Z,15.88
2022-12-22T09:32:21.601Z,15.65
2022-12-22T09:34:49.933Z,16.42
2022-12-22T09:37:18.140Z,17.90
2022-12-22T09:39:47.247Z,16.95
2022-12-22T09:42:19.210Z,16.20
2022-12-22T09:44:51.959Z,16.70
2022-12-22T09:47:24.527Z,16.13
2022-12-22T09:49:54.762Z,15.45
2022-12-22T09:52:26.268Z,13.98
2022-12-22T09:54:54.145Z,13.55
2022-12-22T09:57:24.857Z,13.32
2022-12-22T09:59:54.582Z,12.73
2022-12-22T10:02:29.795Z,10.90
2022-12-22T10:05:07.360Z,13.23
2022-12-22T10:07:38.480Z,12.40
2022-12-22T10:10:08.484Z,12.70
2022-12-22T10:12:36.339Z,11.55
2022-12-22T10:15:06.360Z,12.23
2022-12-22T10:17:35.615Z,11.40
2022-12-22T10:20:21.335Z,12.07
2022-12-22T10:22:52.154Z,11.13
2022-12-22T10:25:52.240Z,9.40
2022-12-22T10:28:23.750Z,9.80
2022-12-22T10:31:12.474Z,10.55
2022-12-22T10:33:46.127Z,10.43
2022-12-22T10:38:57.387Z,9.70
2022-12-22T10:41:28.354Z,10.20
2022-12-22T10:43:58.394Z,9.15
2022-12-22T10:46:37.391Z,9.07
2022-12-22T10:49:16.403Z,9.38
2022-12-22T10:51:47.735Z,8.65
2022-12-22T10:54:26.934Z,10.45
2022-12-22T10:57:06.909Z,9.82
2022-12-22T10:59:35.602Z,10.65
2022-12-22T11:02:27.440Z,10.10
2022-12-22T11:05:01.425Z,9.77
2022-12-22T11:07:31.351Z,9.80
2022-12-22T11:09:59.537Z,9.77
2022-12-22T11:12:35.617Z,10.23
2022-12-22T11:15:11.801Z,10.43
2022-12-22T11:17:51.044Z,11.30
2022-12-22T11:20:42.097Z,11.95
2022-12-22T11:23:17.312Z,15.02
2022-12-22T11:25:56.490Z,15.65
2022-12-22T11:28:40.680Z,15.77
2022-12-22T11:31:24.453Z,16.70
2022-12-22T11:34:06.308Z,19.08
2022-12-22T11:36:46.470Z,19.83
2022-12-22T11:39:17.266Z,21.15
2022-12-22T11:42:04.756Z,21.10
2022-12-22T11:44:42.085Z,19.75
2022-12-22T11:47:21.359Z,20.95
2022-12-22T11:50:59.174Z,21.23
2022-12-22T11:53:43.764Z,20.60
2022-12-22T11:56:22.827Z,21.27
2022-12-22T11:59:10.432Z,21.23
2022-12-22T12:01:56.464Z,19.98
2022-12-22T12:04:39.136Z,19.73
2022-12-22T12:07:25.963Z,18.75
2022-12-22T12:10:04.005Z,16.80
2022-12-22T12:12:44.711Z,14.32
2022-12-22T12:15:25.507Z,12.82
2022-12-22T12:18:18.067Z,11.63
2022-12-22T12:20:59.251Z,9.70
2022-12-22T12:23:47.833Z,9.30
2022-12-22T12:26:21.037Z,7.88
2022-12-22T12:28:56.908Z,8.77
2022-12-22T12:31:31.405Z,9.90
2022-12-22T12:34:02.999Z,10.02
2022-12-22T12:36:40.100Z,10.00
2022-12-22T12:39:17.012Z,9.20
2022-12-22T12:41:54.434Z,9.63
2022-12-22T12:44:26.768Z,10.45
2022-12-22T12:47:06.043Z,9.85
2022-12-22T12:49:53.918Z,9.63
2022-12-22T12:53:15.653Z,9.85
2022-12-22T12:56:03.908Z,10.68
2022-12-22T12:58:50.629Z,10.48
2022-12-22T13:01:57.671Z,9.80
2022-12-22T13:05:14.789Z,9.32
2022-12-22T13:08:16.971Z,10.05
2022-12-22T13:10:48.617Z,10.07
2022-12-22T13:13:58.836Z,10.70
2022-12-22T13:16:35.059Z,10.65
2022-12-22T13:19:18.119Z,10.82
2022-12-22T13:21:55.333Z,12.37
2022-12-22T13:27:16.236Z,11.77
2022-12-22T13:29:47.823Z,12.07
2022-12-22T13:30:51.211Z,10.68
2022-12-22T13:32:23.590Z,13.02
2022-12-22T13:37:49.792Z,14.23
2022-12-22T13:40:20.801Z,13.68
2022-12-22T13:42:51.495Z,14.43
2022-12-22T13:45:27.079Z,15.02
2022-12-22T13:47:56.934Z,15.75
2022-12-22T13:50:28.845Z,16.15
2022-12-22T13:52:58.893Z,17.38
2022-12-22T13:55:30.696Z,18.00
2022-12-22T13:58:04.387Z,17.90
2022-12-22T14:00:32.531Z,19.30
2022-12-22T14:03:02.122Z,18.50
2022-12-22T14:05:34.289Z,19.80
2022-12-22T14:08:04.040Z,19.80
2022-12-22T14:10:38.506Z,18.08
2022-12-22T14:13:12.468Z,20.33
2022-12-22T14:15:40.454Z,18.67
2022-12-22T14:18:15.660Z,18.48
2022-12-22T14:20:45.061Z,18.52
2022-12-22T14:23:19.376Z,19.88
2022-12-22T14:25:48.092Z,18.98
2022-12-22T14:28:21.139Z,19.88
2022-12-22T14:30:51.805Z,20.08
2022-12-22T14:33:30.020Z,20.50
2022-12-22T14:36:17.033Z,19.95
2022-12-22T14:38:47.272Z,19.98
2022-12-22T14:41:35.856Z,20.20
2022-12-22T14:44:04.267Z,20.08
2022-12-22T14:46:38.581Z,22.52
2022-12-22T14:49:15.258Z,20.25
2022-12-22T14:51:43.473Z,20.77
2022-12-22T14:54:21.081Z,20.52
2022-12-22T14:56:51.630Z,19.30
2022-12-22T14:59:27.109Z,21.80
2022-12-22T15:02:00.008Z,21.25
2022-12-22T15:04:30.405Z,21.10
2022-12-22T15:07:53.776Z,21.52
2022-12-22T15:10:14.979Z,20.67
2022-12-22T15:12:46.611Z,21.98
2022-12-22T15:15:17.937Z,21.85
2022-12-22T15:17:48.371Z,20.70
2022-12-22T15:20:22.990Z,23.17
2022-12-22T15:22:51.367Z,20.80
2022-12-22T15:25:21.532Z,21.65
2022-12-22T15:27:50.472Z,22.45
2022-12-22T15:30:26.624Z,21.92
2022-12-22T15:32:56.368Z,22.02
2022-12-22T15:35:30.378Z,23.13
2022-12-22T15:38:00.220Z,22.83
2022-12-22T15:40:29.389Z,23.33
2022-12-22T15:42:57.311Z,24.95
2022-12-22T15:45:25.282Z,26.25
2022-12-22T15:47:55.633Z,26.52
2022-12-22T15:50:29.306Z,26.23
2022-12-22T15:53:00.675Z,30.05
2022-12-22T15:55:28.875Z,25.67
2022-12-22T15:58:00.052Z,27.63
2022-12-22T16:00:27.957Z,27.48
2022-12-22T16:02:57.099Z,26.92
2022-12-22T16:05:26.472Z,28.25
2022-12-22T16:07:54.445Z,32.38
2022-12-22T16:10:25.594Z,32.78
2022-12-22T16:13:00.333Z,32.42
2022-12-22T16:15:30.660Z,30.05
2022-12-22T16:17:58.912Z,28.48
2022-12-22T16:20:35.772Z,27.52
2022-12-22T16:23:06.741Z,26.80
2022-12-22T16:25:37.394Z,24.23
2022-12-22T16:28:06.938Z,22.70
2022-12-22T16:30:35.820Z,23.13
2022-12-22T16:33:03.708Z,22.92
2022-12-22T16:35:33.695Z,23.67
2022-12-22T16:38:01.602Z,22.80
2022-12-22T16:40:29.921Z,21.00
2022-12-22T16:45:49.370Z,21.27
2022-12-22T16:48:21.870Z,20.80
2022-12-22T16:50:51.137Z,21.58
2022-12-22T16:53:19.028Z,21.38
2022-12-22T16:55:46.881Z,20.80
2022-12-22T16:58:14.786Z,23.23
2022-12-22T17:00:44.774Z,23.70
2022-12-22T17:03:16.930Z,22.63
2022-12-22T17:05:47.459Z,20.35
2022-12-22T17:08:23.283Z,19.67
2022-12-22T17:10:51.679Z,21.30
2022-12-22T17:13:20.759Z,19.75
2022-12-22T17:15:48.775Z,21.67
2022-12-22T17:18:18.346Z,26.65
2022-12-22T17:20:47.970Z,24.77
2022-12-22T17:23:32.788Z,24.75
2022-12-22T17:26:04.571Z,20.88
2022-12-22T17:28:33.531Z,17.88
2022-12-22T17:31:01.597Z,17.70
2022-12-22T17:33:29.589Z,17.13
2022-12-22T17:35:58.497Z,17.17
2022-12-22T17:38:28.935Z,16.80
2022-12-22T17:40:57.593Z,17.38
2022-12-22T17:43:25.732Z,15.95
2022-12-22T17:45:54.057Z,17.50
2022-12-22T17:48:22.059Z,15.98
2022-12-22T17:50:50.253Z,15.43
2022-12-22T17:53:21.304Z,14.27
2022-12-22T17:56:08.959Z,13.98
2022-12-22T17:58:37.585Z,14.27
2022-12-22T18:01:05.678Z,14.23
2022-12-22T18:03:33.983Z,15.10
2022-12-22T18:06:01.967Z,15.20
2022-12-22T18:08:29.944Z,15.77
2022-12-22T18:10:59.699Z,13.98
2022-12-22T18:13:27.676Z,13.80
2022-12-22T18:15:56.036Z,14.23
2022-12-22T18:18:24.258Z,14.20
2022-12-22T18:21:06.951Z,14.02
2022-12-22T18:23:37.040Z,14.25
2022-12-22T18:26:08.489Z,14.70
2022-12-22T18:28:36.845Z,15.23
2022-12-22T18:31:04.904Z,14.45
2022-12-22T18:33:32.898Z,15.88
2022-12-22T18:36:02.173Z,14.52
2022-12-22T18:38:33.265Z,14.50
2022-12-22T18:41:01.491Z,15.55
2022-12-22T18:43:30.718Z,15.20
2022-12-22T18:45:58.613Z,15.27
2022-12-22T18:48:26.586Z,14.55
2022-12-22T18:50:54.487Z,14.63
2022-12-22T18:53:28.605Z,16.38
2022-12-22T18:58:25.711Z,14.02
2022-12-22T19:00:57.037Z,14.77
2022-12-22T19:03:29.292Z,15.13
2022-12-22T19:05:58.096Z,14.75
2022-12-22T19:08:28.052Z,15.15
2022-12-22T19:10:57.654Z,15.05
2022-12-22T19:13:29.481Z,15.07
2022-12-22T19:15:59.490Z,14.10
2022-12-22T19:18:29.017Z,15.60
2022-12-22T19:20:57.442Z,16.13
2022-12-22T19:23:27.071Z,15.50
2022-12-22T19:26:01.659Z,16.13
2022-12-22T19:28:34.447Z,15.95
2022-12-22T19:31:04.614Z,15.80
2022-12-22T19:33:37.476Z,15.95
2022-12-22T19:36:06.364Z,15.85
2022-12-22T19:38:35.791Z,15.18
2022-12-22T19:41:05.622Z,16.17
2022-12-22T19:43:34.344Z,15.20
2022-12-22T19:46:05.156Z,14.45
2022-12-22T19:48:33.169Z,15.50
2022-12-22T19:51:01.086Z,16.05
2022-12-22T19:53:29.064Z,14.98
2022-12-22T19:55:57.975Z,15.65
2022-12-22T19:58:30.981Z,15.77
2022-12-22T20:00:59.017Z,15.10
2022-12-22T20:03:28.609Z,14.93
2022-12-22T20:05:56.556Z,16.80
2022-12-22T20:08:24.436Z,16.60
2022-12-22T20:10:58.421Z,16.15
2022-12-22T20:13:30.926Z,17.27
2022-12-22T20:15:59.339Z,15.90
2022-12-22T20:18:30.427Z,16.73
2022-12-22T20:21:02.965Z,16.92
2022-12-22T20:23:35.055Z,18.00
2022-12-22T20:26:06.014Z,17.83
2022-12-22T20:28:36.978Z,17.15
2022-12-22T20:31:06.453Z,17.38
2022-12-22T20:33:36.159Z,15.73
2022-12-22T20:36:05.784Z,15.95
2022-12-22T20:38:35.623Z,14.77
2022-12-22T20:41:05.416Z,14.07
2022-12-22T20:43:34.716Z,14.43
2022-12-22T20:46:05.090Z,14.95
2022-12-22T20:48:36.486Z,14.20
2022-12-22T20:51:06.272Z,14.82
2022-12-22T20:53:34.476Z,13.77
2022-12-22T20:56:03.613Z,14.40
2022-12-22T20:58:36.118Z,14.13
2022-12-22T21:01:04.568Z,13.77
2022-12-22T21:03:32.638Z,14.73
2022-12-22T21:06:02.058Z,13.98
2022-12-22T21:08:29.954Z,14.00
2022-12-22T21:10:57.970Z,14.30
2022-12-22T21:13:25.954Z,14.68
2022-12-22T21:15:54.134Z,15.10
2022-12-22T21:18:24.352Z,14.20
2022-12-22T21:20:53.074Z,13.73
2022-12-22T21:23:22.367Z,13.10
2022-12-22T21:25:52.371Z,13.45
2022-12-22T21:28:28.266Z,12.55
2022-12-22T21:30:56.230Z,13.00
2022-12-22T21:33:24.306Z,12.32
2022-12-22T21:35:53.673Z,12.10
2022-12-22T21:38:25.354Z,11.52
2022-12-22T21:40:53.426Z,10.27
2022-12-22T21:43:21.400Z,10.43
2022-12-22T21:45:50.534Z,10.30
2022-12-22T21:48:21.077Z,9.27
2022-12-22T21:50:50.670Z,10.25
2022-12-22T21:53:22.477Z,9.32
2022-12-22T21:55:52.114Z,8.73
2022-12-22T21:58:20.090Z,7.72
2022-12-22T22:00:50.100Z,8.25
2022-12-22T22:03:18.573Z,9.02
2022-12-22T22:05:48.007Z,9.13
2022-12-22T22:08:15.951Z,9.15
2022-12-22T22:10:44.976Z,9.40
2022-12-22T22:13:16.839Z,10.02
2022-12-22T22:15:44.808Z,10.90
2022-12-22T22:18:17.355Z,9.32
2022-12-22T22:20:45.824Z,10.07
2022-12-22T22:23:15.313Z,10.10
2022-12-22T22:25:43.229Z,10.07
2022-12-22T22:28:12.154Z,8.93
2022-12-22T22:30:43.064Z,8.90
2022-12-22T22:33:11.992Z,10.02
2022-12-22T22:35:42.384Z,10.15
2022-12-22T22:38:12.513Z,9.77
2022-12-22T22:40:43.327Z,10.82
2022-12-22T22:43:11.425Z,10.10
2022-12-22T22:45:40.546Z,9.82
2022-12-22T22:48:18.094Z,11.25
2022-12-22T22:50:46.289Z,11.07
2022-12-22T22:53:14.217Z,11.30
2022-12-22T22:55:42.139Z,11.15
2022-12-22T22:58:11.462Z,11.05
2022-12-22T23:00:39.604Z,10.00
2022-12-22T23:03:09.106Z,10.85
2022-12-22T23:05:37.088Z,11.88
2022-12-22T23:08:05.347Z,12.32
2022-12-22T23:10:37.861Z,12.18
2022-12-22T23:13:09.443Z,13.02
2022-12-22T23:15:37.316Z,11.90
2022-12-22T23:18:05.332Z,12.63
2022-12-22T23:20:34.567Z,13.95
2022-12-22T23:23:02.456Z,13.90
2022-12-22T23:25:30.343Z,13.23
2022-12-22T23:27:58.293Z,14.73
2022-12-22T23:30:26.181Z,14.13
2022-12-22T23:32:54.125Z,13.80
2022-12-22T23:35:22.010Z,13.93
2022-12-22T23:37:51.488Z,12.98
2022-12-22T23:40:50.916Z,12.85
2022-12-22T23:43:08.778Z,13.98
2022-12-22T23:45:36.740Z,12.82
2022-12-22T23:48:05.537Z,13.00
2022-12-22T23:50:33.732Z,12.57
2022-12-22T23:53:03.465Z,13.95
2022-12-22T23:55:31.490Z,13.77
2022-12-22T23:57:59.462Z,14.32
